sensor_id;sensor_type;location;lat;lon;timestamp;P1;durP1;ratioP1;P2;durP2;ratioP2
49384;SDS011;36795;45.028;38.968;2023-10-31T00:01:57;47.70;;;22.65;;
49384;SDS011;36795;45.028;38.968;2023-10-31T00:05:02;43.38;;;22.30;;
49384;SDS011;36795;45.028;38.968;2023-10-31T00:08:09;39.58;;;20.75;;
49384;SDS011;36795;45.028;38.968;2023-10-31T00:11:10;43.92;;;20.95;;
49384;SDS011;36795;45.028;38.968;2023-10-31T00:14:10;40.17;;;19.55;;
49384;SDS011;36795;45.028;38.968;2023-10-31T00:17:06;43.97;;;20.15;;
49384;SDS011;36795;45.028;38.968;2023-10-31T00:20:02;40.67;;;20.30;;
49384;SDS011;36795;45.028;38.968;2023-10-31T00:23:04;38.28;;;18.67;;
49384;SDS011;36795;45.028;38.968;2023-10-31T00:26:05;37.40;;;18.30;;
49384;SDS011;36795;45.028;38.968;2023-10-31T00:29:22;38.38;;;17.25;;
49384;SDS011;36795;45.028;38.968;2023-10-31T00:32:28;32.70;;;15.30;;
49384;SDS011;36795;45.028;38.968;2023-10-31T00:35:31;36.83;;;16.08;;
49384;SDS011;36795;45.028;38.968;2023-10-31T00:38:31;36.50;;;13.45;;
49384;SDS011;36795;45.028;38.968;2023-10-31T00:41:43;34.60;;;14.55;;
49384;SDS011;36795;45.028;38.968;2023-10-31T00:44:43;33.33;;;14.18;;
49384;SDS011;36795;45.028;38.968;2023-10-31T00:47:54;35.53;;;14.07;;
49384;SDS011;36795;45.028;38.968;2023-10-31T00:50:54;29.63;;;13.15;;
49384;SDS011;36795;45.028;38.968;2023-10-31T00:54:02;29.92;;;13.43;;
49384;SDS011;36795;45.028;38.968;2023-10-31T00:57:15;30.65;;;13.20;;
49384;SDS011;36795;45.028;38.968;2023-10-31T01:00:25;31.77;;;13.30;;
49384;SDS011;36795;45.028;38.968;2023-10-31T01:03:26;32.50;;;14.10;;
49384;SDS011;36795;45.028;38.968;2023-10-31T01:06:44;34.47;;;12.90;;
49384;SDS011;36795;45.028;38.968;2023-10-31T01:09:44;30.95;;;12.05;;
49384;SDS011;36795;45.028;38.968;2023-10-31T01:12:45;33.72;;;12.48;;
49384;SDS011;36795;45.028;38.968;2023-10-31T01:15:50;32.42;;;12.27;;
49384;SDS011;36795;45.028;38.968;2023-10-31T01:19:09;31.25;;;11.85;;
49384;SDS011;36795;45.028;38.968;2023-10-31T01:22:17;31.87;;;12.15;;
49384;SDS011;36795;45.028;38.968;2023-10-31T01:25:29;27.62;;;10.90;;
49384;SDS011;36795;45.028;38.968;2023-10-31T01:28:25;30.55;;;10.93;;
49384;SDS011;36795;45.028;38.968;2023-10-31T01:31:26;30.73;;;11.27;;
49384;SDS011;36795;45.028;38.968;2023-10-31T01:34:27;29.23;;;10.73;;
49384;SDS011;36795;45.028;38.968;2023-10-31T01:37:36;29.27;;;11.48;;
49384;SDS011;36795;45.028;38.968;2023-10-31T01:40:35;30.08;;;11.25;;
49384;SDS011;36795;45.028;38.968;2023-10-31T01:43:56;30.58;;;10.48;;
49384;SDS011;36795;45.028;38.968;2023-10-31T01:47:04;32.63;;;11.05;;
49384;SDS011;36795;45.028;38.968;2023-10-31T01:50:19;31.42;;;11.15;;
49384;SDS011;36795;45.028;38.968;2023-10-31T01:53:20;30.10;;;11.27;;
49384;SDS011;36795;45.028;38.968;2023-10-31T01:56:21;34.22;;;10.65;;
49384;SDS011;36795;45.028;38.968;2023-10-31T01:59:22;32.38;;;12.68;;
49384;SDS011;36795;45.028;38.968;2023-10-31T02:02:32;27.90;;;10.77;;
49384;SDS011;36795;45.028;38.968;2023-10-31T02:05:37;29.20;;;11.50;;
49384;SDS011;36795;45.028;38.968;2023-10-31T02:08:47;41.58;;;20.27;;
49384;SDS011;36795;45.028;38.968;2023-10-31T02:11:48;30.75;;;12.40;;
49384;SDS011;36795;45.028;38.968;2023-10-31T02:15:00;45.97;;;13.18;;
49384;SDS011;36795;45.028;38.968;2023-10-31T02:18:14;30.37;;;12.23;;
49384;SDS011;36795;45.028;38.968;2023-10-31T02:21:14;28.40;;;11.23;;
49384;SDS011;36795;45.028;38.968;2023-10-31T02:24:19;29.05;;;11.10;;
49384;SDS011;36795;45.028;38.968;2023-10-31T02:27:20;34.47;;;13.60;;
49384;SDS011;36795;45.028;38.968;2023-10-31T02:30:24;30.70;;;12.80;;
49384;SDS011;36795;45.028;38.968;2023-10-31T02:33:30;29.48;;;12.18;;
49384;SDS011;36795;45.028;38.968;2023-10-31T02:36:28;29.85;;;11.40;;
49384;SDS011;36795;45.028;38.968;2023-10-31T02:39:31;35.67;;;12.50;;
49384;SDS011;36795;45.028;38.968;2023-10-31T02:42:36;33.00;;;12.50;;
49384;SDS011;36795;45.028;38.968;2023-10-31T02:45:51;30.35;;;11.77;;
49384;SDS011;36795;45.028;38.968;2023-10-31T02:48:56;32.28;;;12.85;;
49384;SDS011;36795;45.028;38.968;2023-10-31T02:51:51;32.65;;;13.35;;
49384;SDS011;36795;45.028;38.968;2023-10-31T02:54:51;34.28;;;12.77;;
49384;SDS011;36795;45.028;38.968;2023-10-31T02:58:04;29.70;;;12.32;;
49384;SDS011;36795;45.028;38.968;2023-10-31T03:01:35;36.25;;;13.43;;
49384;SDS011;36795;45.028;38.968;2023-10-31T03:04:51;32.40;;;14.20;;
49384;SDS011;36795;45.028;38.968;2023-10-31T03:08:13;35.58;;;16.33;;
49384;SDS011;36795;45.028;38.968;2023-10-31T03:11:09;36.38;;;16.02;;
49384;SDS011;36795;45.028;38.968;2023-10-31T03:17:39;34.28;;;12.25;;
49384;SDS011;36795;45.028;38.968;2023-10-31T03:20:46;34.90;;;12.77;;
49384;SDS011;36795;45.028;38.968;2023-10-31T03:23:52;27.95;;;11.35;;
49384;SDS011;36795;45.028;38.968;2023-10-31T03:27:02;36.72;;;11.65;;
49384;SDS011;36795;45.028;38.968;2023-10-31T03:30:11;45.72;;;22.10;;
49384;SDS011;36795;45.028;38.968;2023-10-31T03:33:29;39.63;;;11.90;;
49384;SDS011;36795;45.028;38.968;2023-10-31T03:36:26;30.15;;;10.30;;
49384;SDS011;36795;45.028;38.968;2023-10-31T03:39:23;31.83;;;10.32;;
49384;SDS011;36795;45.028;38.968;2023-10-31T03:42:24;28.70;;;10.43;;
49384;SDS011;36795;45.028;38.968;2023-10-31T03:45:28;29.50;;;9.90;;
49384;SDS011;36795;45.028;38.968;2023-10-31T03:48:30;31.35;;;10.65;;
49384;SDS011;36795;45.028;38.968;2023-10-31T03:51:30;29.67;;;9.85;;
49384;SDS011;36795;45.028;38.968;2023-10-31T03:54:29;28.23;;;9.30;;
49384;SDS011;36795;45.028;38.968;2023-10-31T04:00:42;25.58;;;8.40;;
49384;SDS011;36795;45.028;38.968;2023-10-31T04:03:46;26.15;;;9.25;;
49384;SDS011;36795;45.028;38.968;2023-10-31T04:06:49;29.83;;;9.93;;
49384;SDS011;36795;45.028;38.968;2023-10-31T04:09:53;32.67;;;10.40;;
49384;SDS011;36795;45.028;38.968;2023-10-31T04:12:52;31.02;;;10.57;;
49384;SDS011;36795;45.028;38.968;2023-10-31T04:15:48;31.10;;;11.38;;
49384;SDS011;36795;45.028;38.968;2023-10-31T04:18:44;27.55;;;9.98;;
49384;SDS011;36795;45.028;38.968;2023-10-31T04:22:00;29.75;;;10.98;;
49384;SDS011;36795;45.028;38.968;2023-10-31T04:24:59;38.08;;;17.60;;
49384;SDS011;36795;45.028;38.968;2023-10-31T04:27:56;29.27;;;10.30;;
49384;SDS011;36795;45.028;38.968;2023-10-31T04:30:52;35.72;;;11.57;;
49384;SDS011;36795;45.028;38.968;2023-10-31T04:34:02;26.52;;;9.30;;
49384;SDS011;36795;45.028;38.968;2023-10-31T04:37:21;25.27;;;9.70;;
49384;SDS011;36795;45.028;38.968;2023-10-31T04:40:20;25.23;;;8.40;;
49384;SDS011;36795;45.028;38.968;2023-10-31T04:43:51;23.70;;;8.43;;
49384;SDS011;36795;45.028;38.968;2023-10-31T04:46:58;29.08;;;8.95;;
49384;SDS011;36795;45.028;38.968;2023-10-31T04:50:09;29.05;;;7.53;;
49384;SDS011;36795;45.028;38.968;2023-10-31T04:53:18;28.05;;;8.50;;
49384;SDS011;36795;45.028;38.968;2023-10-31T04:56:28;25.52;;;8.85;;
49384;SDS011;36795;45.028;38.968;2023-10-31T04:59:31;28.87;;;8.95;;
49384;SDS011;36795;45.028;38.968;2023-10-31T05:02:27;28.67;;;10.23;;
49384;SDS011;36795;45.028;38.968;2023-10-31T05:05:33;29.27;;;9.00;;
49384;SDS011;36795;45.028;38.968;2023-10-31T05:08:34;32.88;;;10.38;;
49384;SDS011;36795;45.028;38.968;2023-10-31T05:11:43;32.53;;;13.30;;
49384;SDS011;36795;45.028;38.968;2023-10-31T05:14:41;27.05;;;9.10;;
49384;SDS011;36795;45.028;38.968;2023-10-31T05:17:37;28.15;;;9.02;;
49384;SDS011;36795;45.028;38.968;2023-10-31T05:20:40;30.75;;;10.27;;
49384;SDS011;36795;45.028;38.968;2023-10-31T05:23:55;30.55;;;10.00;;
49384;SDS011;36795;45.028;38.968;2023-10-31T05:27:18;32.17;;;10.77;;
49384;SDS011;36795;45.028;38.968;2023-10-31T05:30:20;29.08;;;9.43;;
49384;SDS011;36795;45.028;38.968;2023-10-31T05:33:28;29.02;;;10.90;;
49384;SDS011;36795;45.028;38.968;2023-10-31T05:36:50;33.00;;;11.02;;
49384;SDS011;36795;45.028;38.968;2023-10-31T05:39:47;27.50;;;10.93;;
49384;SDS011;36795;45.028;38.968;2023-10-31T05:42:50;29.85;;;12.82;;
49384;SDS011;36795;45.028;38.968;2023-10-31T05:45:56;31.37;;;11.45;;
49384;SDS011;36795;45.028;38.968;2023-10-31T05:49:12;29.83;;;11.25;;
49384;SDS011;36795;45.028;38.968;2023-10-31T05:52:14;34.80;;;11.70;;
49384;SDS011;36795;45.028;38.968;2023-10-31T05:55:15;30.35;;;11.38;;
49384;SDS011;36795;45.028;38.968;2023-10-31T05:58:24;32.03;;;12.27;;
49384;SDS011;36795;45.028;38.968;2023-10-31T06:01:36;34.00;;;13.05;;
49384;SDS011;36795;45.028;38.968;2023-10-31T06:04:41;32.70;;;12.52;;
49384;SDS011;36795;45.028;38.968;2023-10-31T06:07:39;32.05;;;13.13;;
49384;SDS011;36795;45.028;38.968;2023-10-31T06:10:38;31.98;;;12.80;;
49384;SDS011;36795;45.028;38.968;2023-10-31T06:13:46;31.05;;;13.55;;
49384;SDS011;36795;45.028;38.968;2023-10-31T06:17:02;35.42;;;14.68;;
49384;SDS011;36795;45.028;38.968;2023-10-31T06:20:08;35.55;;;14.95;;
49384;SDS011;36795;45.028;38.968;2023-10-31T06:23:18;34.78;;;14.13;;
49384;SDS011;36795;45.028;38.968;2023-10-31T06:26:18;35.75;;;13.32;;
49384;SDS011;36795;45.028;38.968;2023-10-31T06:29:26;37.08;;;14.18;;
49384;SDS011;36795;45.028;38.968;2023-10-31T06:32:29;35.97;;;14.50;;
49384;SDS011;36795;45.028;38.968;2023-10-31T06:35:27;31.62;;;13.25;;
49384;SDS011;36795;45.028;38.968;2023-10-31T06:38:41;35.47;;;12.30;;
49384;SDS011;36795;45.028;38.968;2023-10-31T06:41:49;37.72;;;12.60;;
49384;SDS011;36795;45.028;38.968;2023-10-31T06:45:02;31.95;;;11.73;;
49384;SDS011;36795;45.028;38.968;2023-10-31T06:48:03;35.20;;;12.05;;
49384;SDS011;36795;45.028;38.968;2023-10-31T06:51:23;38.63;;;11.75;;
49384;SDS011;36795;45.028;38.968;2023-10-31T06:54:22;33.67;;;12.55;;
49384;SDS011;36795;45.028;38.968;2023-10-31T06:57:52;32.63;;;12.27;;
49384;SDS011;36795;45.028;38.968;2023-10-31T07:00:55;35.83;;;13.52;;
49384;SDS011;36795;45.028;38.968;2023-10-31T07:03:51;31.75;;;12.98;;
49384;SDS011;36795;45.028;38.968;2023-10-31T07:07:04;32.50;;;13.43;;
49384;SDS011;36795;45.028;38.968;2023-10-31T07:10:19;36.97;;;14.27;;
49384;SDS011;36795;45.028;38.968;2023-10-31T07:13:30;36.03;;;15.23;;
49384;SDS011;36795;45.028;38.968;2023-10-31T07:19:41;36.05;;;15.15;;
49384;SDS011;36795;45.028;38.968;2023-10-31T07:22:53;44.53;;;16.55;;
49384;SDS011;36795;45.028;38.968;2023-10-31T07:25:57;33.25;;;16.08;;
49384;SDS011;36795;45.028;38.968;2023-10-31T07:29:07;37.05;;;16.15;;
49384;SDS011;36795;45.028;38.968;2023-10-31T07:32:11;30.35;;;16.10;;
49384;SDS011;36795;45.028;38.968;2023-10-31T07:35:21;35.42;;;14.95;;
49384;SDS011;36795;45.028;38.968;2023-10-31T07:38:18;35.70;;;16.08;;
49384;SDS011;36795;45.028;38.968;2023-10-31T07:41:19;36.35;;;15.70;;
49384;SDS011;36795;45.028;38.968;2023-10-31T07:44:24;31.45;;;15.93;;
49384;SDS011;36795;45.028;38.968;2023-10-31T07:47:20;36.08;;;18.20;;
49384;SDS011;36795;45.028;38.968;2023-10-31T07:50:33;36.30;;;18.10;;
49384;SDS011;36795;45.028;38.968;2023-10-31T07:53:30;36.50;;;17.45;;
49384;SDS011;36795;45.028;38.968;2023-10-31T07:56:30;32.50;;;17.08;;
49384;SDS011;36795;45.028;38.968;2023-10-31T07:59:39;33.92;;;17.98;;
49384;SDS011;36795;45.028;38.968;2023-10-31T08:03:00;36.13;;;18.15;;
49384;SDS011;36795;45.028;38.968;2023-10-31T08:06:06;37.85;;;20.08;;
49384;SDS011;36795;45.028;38.968;2023-10-31T08:09:06;36.53;;;19.02;;
49384;SDS011;36795;45.028;38.968;2023-10-31T08:12:06;41.22;;;20.05;;
49384;SDS011;36795;45.028;38.968;2023-10-31T08:15:09;39.65;;;20.23;;
49384;SDS011;36795;45.028;38.968;2023-10-31T08:18:14;38.60;;;21.70;;
49384;SDS011;36795;45.028;38.968;2023-10-31T08:21:18;41.35;;;21.77;;
49384;SDS011;36795;45.028;38.968;2023-10-31T08:24:26;45.10;;;23.75;;
49384;SDS011;36795;45.028;38.968;2023-10-31T08:27:24;44.05;;;22.67;;
49384;SDS011;36795;45.028;38.968;2023-10-31T08:30:25;42.50;;;21.27;;
49384;SDS011;36795;45.028;38.968;2023-10-31T08:33:36;40.42;;;21.58;;
49384;SDS011;36795;45.028;38.968;2023-10-31T08:36:42;43.42;;;21.15;;
49384;SDS011;36795;45.028;38.968;2023-10-31T08:39:38;41.20;;;23.75;;
49384;SDS011;36795;45.028;38.968;2023-10-31T08:42:43;38.60;;;22.33;;
49384;SDS011;36795;45.028;38.968;2023-10-31T08:45:42;41.40;;;21.60;;
49384;SDS011;36795;45.028;38.968;2023-10-31T08:48:47;43.28;;;21.55;;
49384;SDS011;36795;45.028;38.968;2023-10-31T08:51:46;41.83;;;19.53;;
49384;SDS011;36795;45.028;38.968;2023-10-31T08:54:49;36.42;;;18.23;;
49384;SDS011;36795;45.028;38.968;2023-10-31T08:57:56;42.72;;;20.15;;
49384;SDS011;36795;45.028;38.968;2023-10-31T09:00:57;42.28;;;20.52;;
49384;SDS011;36795;45.028;38.968;2023-10-31T09:04:00;50.20;;;34.33;;
49384;SDS011;36795;45.028;38.968;2023-10-31T09:07:07;41.15;;;20.55;;
49384;SDS011;36795;45.028;38.968;2023-10-31T09:10:14;41.10;;;20.98;;
49384;SDS011;36795;45.028;38.968;2023-10-31T09:13:17;41.58;;;23.23;;
49384;SDS011;36795;45.028;38.968;2023-10-31T09:16:28;52.58;;;25.17;;
49384;SDS011;36795;45.028;38.968;2023-10-31T09:19:39;37.10;;;22.27;;
49384;SDS011;36795;45.028;38.968;2023-10-31T09:23:01;39.78;;;19.45;;
49384;SDS011;36795;45.028;38.968;2023-10-31T09:26:09;43.05;;;19.70;;
49384;SDS011;36795;45.028;38.968;2023-10-31T09:29:04;46.45;;;22.08;;
49384;SDS011;36795;45.028;38.968;2023-10-31T09:32:27;37.83;;;20.20;;
49384;SDS011;36795;45.028;38.968;2023-10-31T09:35:29;43.83;;;20.50;;
49384;SDS011;36795;45.028;38.968;2023-10-31T09:38:39;39.95;;;18.87;;
49384;SDS011;36795;45.028;38.968;2023-10-31T09:41:57;36.40;;;16.60;;
49384;SDS011;36795;45.028;38.968;2023-10-31T09:45:10;33.75;;;15.02;;
49384;SDS011;36795;45.028;38.968;2023-10-31T09:48:11;32.88;;;15.75;;
49384;SDS011;36795;45.028;38.968;2023-10-31T09:51:23;33.83;;;15.90;;
49384;SDS011;36795;45.028;38.968;2023-10-31T09:57:30;41.88;;;16.20;;
49384;SDS011;36795;45.028;38.968;2023-10-31T10:00:28;37.03;;;15.83;;
49384;SDS011;36795;45.028;38.968;2023-10-31T10:03:31;42.60;;;17.83;;
49384;SDS011;36795;45.028;38.968;2023-10-31T10:10:29;38.55;;;18.30;;
49384;SDS011;36795;45.028;38.968;2023-10-31T10:13:43;36.13;;;17.17;;
49384;SDS011;36795;45.028;38.968;2023-10-31T10:16:47;35.92;;;18.05;;
49384;SDS011;36795;45.028;38.968;2023-10-31T10:20:09;45.80;;;21.50;;
49384;SDS011;36795;45.028;38.968;2023-10-31T10:23:12;50.33;;;21.00;;
49384;SDS011;36795;45.028;38.968;2023-10-31T10:26:20;50.30;;;22.73;;
49384;SDS011;36795;45.028;38.968;2023-10-31T10:29:24;49.80;;;23.60;;
49384;SDS011;36795;45.028;38.968;2023-10-31T10:32:37;45.22;;;23.60;;
49384;SDS011;36795;45.028;38.968;2023-10-31T10:35:54;47.90;;;25.52;;
49384;SDS011;36795;45.028;38.968;2023-10-31T10:39:02;45.63;;;24.40;;
49384;SDS011;36795;45.028;38.968;2023-10-31T10:42:01;56.13;;;23.92;;
49384;SDS011;36795;45.028;38.968;2023-10-31T10:45:08;46.15;;;21.27;;
49384;SDS011;36795;45.028;38.968;2023-10-31T10:48:09;43.15;;;21.12;;
49384;SDS011;36795;45.028;38.968;2023-10-31T10:51:28;43.22;;;19.77;;
49384;SDS011;36795;45.028;38.968;2023-10-31T11:01:58;40.42;;;16.87;;
49384;SDS011;36795;45.028;38.968;2023-10-31T11:05:04;36.55;;;16.77;;
49384;SDS011;36795;45.028;38.968;2023-10-31T11:08:03;40.78;;;15.65;;
49384;SDS011;36795;45.028;38.968;2023-10-31T11:11:10;41.33;;;15.35;;
49384;SDS011;36795;45.028;38.968;2023-10-31T11:14:18;38.47;;;14.95;;
49384;SDS011;36795;45.028;38.968;2023-10-31T11:17:44;37.58;;;13.27;;
49384;SDS011;36795;45.028;38.968;2023-10-31T11:20:52;29.23;;;9.82;;
49384;SDS011;36795;45.028;38.968;2023-10-31T11:24:01;25.42;;;8.38;;
49384;SDS011;36795;45.028;38.968;2023-10-31T11:27:05;34.00;;;9.15;;
49384;SDS011;36795;45.028;38.968;2023-10-31T13:16:31;36.65;;;14.15;;
49384;SDS011;36795;45.028;38.968;2023-10-31T13:19:50;31.65;;;9.18;;
49384;SDS011;36795;45.028;38.968;2023-10-31T13:23:06;25.45;;;8.50;;
49384;SDS011;36795;45.028;38.968;2023-10-31T13:26:19;29.92;;;8.45;;
49384;SDS011;36795;45.028;38.968;2023-10-31T13:29:28;42.83;;;22.23;;
49384;SDS011;36795;45.028;38.968;2023-10-31T13:32:46;32.83;;;8.10;;
49384;SDS011;36795;45.028;38.968;2023-10-31T13:35:50;28.00;;;8.48;;
49384;SDS011;36795;45.028;38.968;2023-10-31T13:39:02;29.20;;;8.40;;
49384;SDS011;36795;45.028;38.968;2023-10-31T13:42:14;29.80;;;8.57;;
49384;SDS011;36795;45.028;38.968;2023-10-31T13:45:25;28.02;;;9.45;;
49384;SDS011;36795;45.028;38.968;2023-10-31T13:48:33;33.50;;;9.02;;
49384;SDS011;36795;45.028;38.968;2023-10-31T13:51:38;26.20;;;8.18;;
49384;SDS011;36795;45.028;38.968;2023-10-31T13:54:59;36.25;;;8.60;;
49384;SDS011;36795;45.028;38.968;2023-10-31T13:58:10;35.20;;;9.15;;
49384;SDS011;36795;45.028;38.968;2023-10-31T14:01:17;30.25;;;8.95;;
49384;SDS011;36795;45.028;38.968;2023-10-31T14:04:34;29.00;;;8.05;;
49384;SDS011;36795;45.028;38.968;2023-10-31T14:07:50;33.22;;;12.30;;
49384;SDS011;36795;45.028;38.968;2023-10-31T14:10:58;30.10;;;9.30;;
49384;SDS011;36795;45.028;38.968;2023-10-31T14:14:00;33.60;;;9.57;;
49384;SDS011;36795;45.028;38.968;2023-10-31T14:17:30;27.08;;;10.15;;
49384;SDS011;36795;45.028;38.968;2023-10-31T14:20:35;43.13;;;13.25;;
49384;SDS011;36795;45.028;38.968;2023-10-31T14:23:48;34.92;;;10.50;;
49384;SDS011;36795;45.028;38.968;2023-10-31T14:27:09;32.28;;;10.23;;
49384;SDS011;36795;45.028;38.968;2023-10-31T14:30:23;29.27;;;10.65;;
49384;SDS011;36795;45.028;38.968;2023-10-31T14:33:38;31.87;;;10.05;;
49384;SDS011;36795;45.028;38.968;2023-10-31T14:40:20;46.15;;;14.35;;
49384;SDS011;36795;45.028;38.968;2023-10-31T14:43:40;36.97;;;13.15;;
49384;SDS011;36795;45.028;38.968;2023-10-31T14:46:52;34.40;;;12.30;;
49384;SDS011;36795;45.028;38.968;2023-10-31T14:50:14;30.37;;;10.95;;
49384;SDS011;36795;45.028;38.968;2023-10-31T14:53:21;28.50;;;10.50;;
49384;SDS011;36795;45.028;38.968;2023-10-31T15:00:05;33.33;;;11.05;;
49384;SDS011;36795;45.028;38.968;2023-10-31T15:03:26;35.53;;;10.73;;
49384;SDS011;36795;45.028;38.968;2023-10-31T15:06:53;30.25;;;10.35;;
49384;SDS011;36795;45.028;38.968;2023-10-31T15:10:09;30.98;;;9.98;;
49384;SDS011;36795;45.028;38.968;2023-10-31T15:13:22;31.02;;;11.12;;
49384;SDS011;36795;45.028;38.968;2023-10-31T15:16:36;31.62;;;10.38;;
49384;SDS011;36795;45.028;38.968;2023-10-31T15:19:43;34.83;;;12.05;;
49384;SDS011;36795;45.028;38.968;2023-10-31T15:22:53;32.30;;;14.30;;
49384;SDS011;36795;45.028;38.968;2023-10-31T15:26:02;33.97;;;10.63;;
49384;SDS011;36795;45.028;38.968;2023-10-31T15:29:15;32.15;;;10.40;;
49384;SDS011;36795;45.028;38.968;2023-10-31T15:32:33;34.30;;;11.90;;
49384;SDS011;36795;45.028;38.968;2023-10-31T15:35:59;42.38;;;12.02;;
49384;SDS011;36795;45.028;38.968;2023-10-31T15:39:22;32.28;;;10.43;;
49384;SDS011;36795;45.028;38.968;2023-10-31T15:42:30;36.75;;;12.15;;
49384;SDS011;36795;45.028;38.968;2023-10-31T15:45:28;32.08;;;11.82;;
49384;SDS011;36795;45.028;38.968;2023-10-31T15:48:40;37.13;;;12.25;;
49384;SDS011;36795;45.028;38.968;2023-10-31T15:51:48;43.42;;;12.98;;
49384;SDS011;36795;45.028;38.968;2023-10-31T15:54:46;33.45;;;12.70;;
49384;SDS011;36795;45.028;38.968;2023-10-31T15:57:47;36.88;;;13.48;;
49384;SDS011;36795;45.028;38.968;2023-10-31T16:00:51;38.90;;;14.52;;
49384;SDS011;36795;45.028;38.968;2023-10-31T16:04:03;36.03;;;13.30;;
49384;SDS011;36795;45.028;38.968;2023-10-31T16:07:20;36.80;;;15.02;;
49384;SDS011;36795;45.028;38.968;2023-10-31T16:10:21;38.17;;;14.68;;
49384;SDS011;36795;45.028;38.968;2023-10-31T16:13:20;44.65;;;15.32;;
49384;SDS011;36795;45.028;38.968;2023-10-31T16:16:17;38.25;;;14.50;;
49384;SDS011;36795;45.028;38.968;2023-10-31T16:19:15;33.78;;;12.15;;
49384;SDS011;36795;45.028;38.968;2023-10-31T16:22:18;35.95;;;14.40;;
49384;SDS011;36795;45.028;38.968;2023-10-31T16:25:14;40.75;;;13.88;;
49384;SDS011;36795;45.028;38.968;2023-10-31T16:28:13;38.90;;;16.77;;
49384;SDS011;36795;45.028;38.968;2023-10-31T16:31:10;35.15;;;14.63;;
49384;SDS011;36795;45.028;38.968;2023-10-31T16:34:22;44.33;;;17.75;;
49384;SDS011;36795;45.028;38.968;2023-10-31T16:37:18;32.40;;;13.85;;
49384;SDS011;36795;45.028;38.968;2023-10-31T16:40:23;36.03;;;15.05;;
49384;SDS011;36795;45.028;38.968;2023-10-31T16:43:26;35.53;;;14.90;;
49384;SDS011;36795;45.028;38.968;2023-10-31T16:49:54;34.30;;;12.65;;
49384;SDS011;36795;45.028;38.968;2023-10-31T16:53:04;33.00;;;12.40;;
49384;SDS011;36795;45.028;38.968;2023-10-31T16:56:04;33.10;;;11.70;;
49384;SDS011;36795;45.028;38.968;2023-10-31T16:59:09;29.23;;;13.00;;
49384;SDS011;36795;45.028;38.968;2023-10-31T17:02:05;35.17;;;13.30;;
49384;SDS011;36795;45.028;38.968;2023-10-31T17:05:06;30.98;;;12.23;;
49384;SDS011;36795;45.028;38.968;2023-10-31T17:08:06;35.40;;;12.73;;
49384;SDS011;36795;45.028;38.968;2023-10-31T17:11:11;31.50;;;11.98;;
49384;SDS011;36795;45.028;38.968;2023-10-31T17:17:18;36.92;;;11.77;;
49384;SDS011;36795;45.028;38.968;2023-10-31T17:20:34;36.00;;;11.57;;
49384;SDS011;36795;45.028;38.968;2023-10-31T17:23:41;33.35;;;11.00;;
49384;SDS011;36795;45.028;38.968;2023-10-31T17:26:43;36.00;;;12.48;;
49384;SDS011;36795;45.028;38.968;2023-10-31T17:29:50;34.55;;;11.60;;
49384;SDS011;36795;45.028;38.968;2023-10-31T17:32:50;31.35;;;12.15;;
49384;SDS011;36795;45.028;38.968;2023-10-31T17:35:56;39.25;;;15.75;;
49384;SDS011;36795;45.028;38.968;2023-10-31T17:39:11;31.35;;;11.52;;
49384;SDS011;36795;45.028;38.968;2023-10-31T17:42:20;35.30;;;11.95;;
49384;SDS011;36795;45.028;38.968;2023-10-31T17:45:32;33.60;;;12.68;;
49384;SDS011;36795;45.028;38.968;2023-10-31T17:48:34;32.70;;;10.95;;
49384;SDS011;36795;45.028;38.968;2023-10-31T17:51:46;36.80;;;11.12;;
49384;SDS011;36795;45.028;38.968;2023-10-31T17:54:55;33.53;;;11.43;;
49384;SDS011;36795;45.028;38.968;2023-10-31T17:57:54;31.73;;;11.90;;
49384;SDS011;36795;45.028;38.968;2023-10-31T18:01:00;33.03;;;10.93;;
49384;SDS011;36795;45.028;38.968;2023-10-31T18:03:58;30.02;;;10.00;;
49384;SDS011;36795;45.028;38.968;2023-10-31T18:06:59;32.83;;;9.40;;
49384;SDS011;36795;45.028;38.968;2023-10-31T18:10:00;28.27;;;9.30;;
49384;SDS011;36795;45.028;38.968;2023-10-31T18:12:50;30.98;;;9.38;;
49384;SDS011;36795;45.028;38.968;2023-10-31T18:15:59;27.62;;;10.30;;
49384;SDS011;36795;45.028;38.968;2023-10-31T18:18:59;31.02;;;10.55;;
49384;SDS011;36795;45.028;38.968;2023-10-31T18:21:56;32.55;;;10.40;;
49384;SDS011;36795;45.028;38.968;2023-10-31T18:24:59;29.17;;;10.52;;
49384;SDS011;36795;45.028;38.968;2023-10-31T18:27:58;33.20;;;10.65;;
49384;SDS011;36795;45.028;38.968;2023-10-31T18:30:55;27.85;;;10.85;;
49384;SDS011;36795;45.028;38.968;2023-10-31T18:33:55;35.50;;;13.85;;
49384;SDS011;36795;45.028;38.968;2023-10-31T18:37:06;30.90;;;13.50;;
49384;SDS011;36795;45.028;38.968;2023-10-31T18:40:27;34.90;;;12.98;;
49384;SDS011;36795;45.028;38.968;2023-10-31T18:43:48;27.90;;;11.00;;
49384;SDS011;36795;45.028;38.968;2023-10-31T18:46:48;32.00;;;11.00;;
49384;SDS011;36795;45.028;38.968;2023-10-31T18:49:48;31.77;;;11.05;;
49384;SDS011;36795;45.028;38.968;2023-10-31T18:53:01;28.55;;;9.73;;
49384;SDS011;36795;45.028;38.968;2023-10-31T18:56:16;30.73;;;10.48;;
49384;SDS011;36795;45.028;38.968;2023-10-31T18:59:27;31.87;;;11.05;;
49384;SDS011;36795;45.028;38.968;2023-10-31T19:02:33;32.25;;;10.90;;
49384;SDS011;36795;45.028;38.968;2023-10-31T19:05:57;30.42;;;10.40;;
49384;SDS011;36795;45.028;38.968;2023-10-31T19:09:07;32.28;;;10.35;;
49384;SDS011;36795;45.028;38.968;2023-10-31T19:16:09;31.05;;;10.85;;
49384;SDS011;36795;45.028;38.968;2023-10-31T19:19:18;30.27;;;10.25;;
49384;SDS011;36795;45.028;38.968;2023-10-31T19:22:27;29.95;;;11.20;;
49384;SDS011;36795;45.028;38.968;2023-10-31T19:25:32;31.20;;;10.60;;
49384;SDS011;36795;45.028;38.968;2023-10-31T19:28:45;31.50;;;13.10;;
49384;SDS011;36795;45.028;38.968;2023-10-31T19:31:55;32.53;;;12.07;;
49384;SDS011;36795;45.028;38.968;2023-10-31T19:35:16;30.05;;;11.80;;
49384;SDS011;36795;45.028;38.968;2023-10-31T19:38:31;30.40;;;13.13;;
49384;SDS011;36795;45.028;38.968;2023-10-31T19:42:03;34.70;;;13.18;;
49384;SDS011;36795;45.028;38.968;2023-10-31T19:45:21;31.27;;;13.25;;
49384;SDS011;36795;45.028;38.968;2023-10-31T19:48:36;32.97;;;12.52;;
49384;SDS011;36795;45.028;38.968;2023-10-31T19:51:51;33.35;;;12.30;;
49384;SDS011;36795;45.028;38.968;2023-10-31T19:55:03;32.42;;;12.13;;
49384;SDS011;36795;45.028;38.968;2023-10-31T19:58:18;32.85;;;12.20;;
49384;SDS011;36795;45.028;38.968;2023-10-31T20:04:50;35.10;;;12.55;;
49384;SDS011;36795;45.028;38.968;2023-10-31T20:08:01;30.92;;;12.20;;
49384;SDS011;36795;45.028;38.968;2023-10-31T20:14:32;31.52;;;11.75;;
49384;SDS011;36795;45.028;38.968;2023-10-31T20:17:45;30.20;;;11.45;;
49384;SDS011;36795;45.028;38.968;2023-10-31T20:21:10;31.40;;;11.85;;
49384;SDS011;36795;45.028;38.968;2023-10-31T20:24:47;36.22;;;12.43;;
49384;SDS011;36795;45.028;38.968;2023-10-31T20:28:06;34.92;;;12.63;;
49384;SDS011;36795;45.028;38.968;2023-10-31T20:31:32;29.27;;;11.27;;
49384;SDS011;36795;45.028;38.968;2023-10-31T20:34:44;33.85;;;12.75;;
49384;SDS011;36795;45.028;38.968;2023-10-31T20:37:54;33.92;;;14.15;;